Time;durP1;ratioP1;P1;durP2;ratioP2;P2;SDS_P1;SDS_P2;PMS_P1;PMS_P2;Temp;Humidity;BMP_temperature;BMP_pressure;BME280_temperature;BME280_humidity;BME280_pressure;Samples;Min_cycle;Max_cycle;Signal;HPM_P1;HPM_P2
2022/10/29 00:00:52;;;;;;;28.90;20.50;;;;;;;10.45;94.95;99145.23;106551;1303;22242;-77
2022/10/29 00:03:35;;;;;;;30.10;21.20;;;;;;;10.43;94.66;99147.02;106730;1303;138546;-78
2022/10/29 00:06:04;;;;;;;34.00;23.10;;;;;;;10.43;94.83;99141.68;106600;1310;22804;-79
2022/10/29 00:08:35;;;;;;;28.10;20.60;;;;;;;10.41;94.71;99138.47;106609;1304;22195;-77
2022/10/29 00:11:20;;;;;;;34.30;23.90;;;;;;;10.39;94.97;99130.38;106665;1291;22191;-78
2022/10/29 00:13:51;;;;;;;33.90;23.20;;;;;;;10.38;94.88;99127.98;106559;1312;22745;-77
2022/10/29 00:16:21;;;;;;;36.90;23.50;;;;;;;10.38;94.89;99122.31;106425;1306;139128;-77
2022/10/29 00:18:50;;;;;;;35.70;24.10;;;;;;;10.36;94.36;99122.48;106550;1312;22150;-78
2022/10/29 00:21:21;;;;;;;36.10;24.80;;;;;;;10.35;94.75;99132.14;106433;1296;138755;-78
2022/10/29 00:23:48;;;;;;;33.20;24.40;;;;;;;10.34;94.76;99131.61;106440;1312;22158;-78
2022/10/29 00:26:15;;;;;;;39.70;25.80;;;;;;;10.33;94.78;99129.35;106557;1312;22104;-78
2022/10/29 00:28:45;;;;;;;32.50;23.20;;;;;;;10.32;94.46;99129.75;106352;1313;138943;-78
2022/10/29 00:31:22;;;;;;;34.10;23.90;;;;;;;10.31;94.82;99128.44;106592;1310;22300;-77
2022/10/29 00:33:50;;;;;;;32.20;22.50;;;;;;;10.29;94.78;99123.58;106535;1310;138806;-77
2022/10/29 00:36:26;;;;;;;30.10;22.00;;;;;;;10.29;94.96;99125.59;106498;1310;22126;-78
2022/10/29 00:38:55;;;;;;;34.70;22.80;;;;;;;10.29;94.79;99120.95;106528;1310;139516;-77
2022/10/29 00:41:26;;;;;;;34.10;23.10;;;;;;;10.28;94.75;99119.91;106468;1299;22102;-77
2022/10/29 00:44:17;;;;;;;34.80;24.00;;;;;;;10.27;94.73;99110.96;106584;1312;22255;-78
2022/10/29 00:46:48;;;;;;;35.00;24.50;;;;;;;10.26;94.90;99106.52;106450;1312;138583;-77
2022/10/29 00:49:16;;;;;;;35.80;23.90;;;;;;;10.25;94.74;99111.65;106545;1312;22190;-77
2022/10/29 00:51:43;;;;;;;37.40;25.30;;;;;;;10.24;94.77;99112.50;106388;1305;138557;-77
2022/10/29 00:54:15;;;;;;;37.40;24.70;;;;;;;10.23;94.57;99108.63;106790;1301;22909;-77
2022/10/29 00:56:44;;;;;;;35.30;23.60;;;;;;;10.23;94.74;99109.21;106440;1312;138590;-77
2022/10/29 00:59:13;;;;;;;35.60;24.10;;;;;;;10.22;94.63;99107.71;106529;1303;22270;-77
2022/10/29 01:01:41;;;;;;;33.60;23.20;;;;;;;10.21;94.33;99104.16;106442;1313;22198;-77
2022/10/29 01:04:09;;;;;;;37.30;23.00;;;;;;;10.20;94.34;99105.65;106359;1313;138778;-77
2022/10/29 01:06:36;;;;;;;34.50;23.00;;;;;;;10.19;94.81;99103.09;106666;1303;22058;-78
2022/10/29 01:09:02;;;;;;;31.90;23.00;;;;;;;10.17;94.53;99099.13;106514;1312;138550;-78
2022/10/29 01:11:45;;;;;;;36.60;22.10;;;;;;;10.17;94.53;99102.11;106457;1298;22263;-77
2022/10/29 01:14:20;;;;;;;34.80;22.80;;;;;;;10.15;94.15;99106.73;106564;1309;22280;-77
2022/10/29 01:17:06;;;;;;;34.30;23.60;;;;;;;10.14;94.37;99101.27;106450;1312;138592;-78
2022/10/29 01:20:13;;;;;;;34.10;24.40;;;;;;;10.12;95.00;99096.14;106573;1311;22101;-77
2022/10/29 01:23:11;;;;;;;35.40;23.70;;;;;;;10.11;94.87;99094.47;105757;1319;139566;-77
2022/10/29 01:26:31;;;;;;;37.00;25.00;;;;;;;10.10;94.87;99092.05;105865;1319;22124;-77
2022/10/29 01:29:22;;;;;;;36.40;24.70;;;;;;;10.10;94.90;99084.48;105777;1318;139077;-77
2022/10/29 01:32:03;;;;;;;37.60;25.90;;;;;;;10.10;95.12;99084.86;105781;1303;22256;-77
2022/10/29 01:34:52;;;;;;;35.50;23.70;;;;;;;10.10;95.00;99086.11;105676;1318;138993;-77
2022/10/29 01:37:43;;;;;;;41.20;26.40;;;;;;;10.10;95.10;99073.77;105806;1318;22265;-77
2022/10/29 01:40:32;;;;;;;33.60;23.00;;;;;;;10.11;95.18;99076.14;105688;1316;139108;-77
2022/10/29 01:43:07;;;;;;;31.70;22.50;;;;;;;10.10;95.19;99069.19;105842;1305;22111;-76
2022/10/29 01:45:39;;;;;;;32.50;22.60;;;;;;;10.11;95.14;99069.31;105738;1318;138852;-77
2022/10/29 01:48:19;;;;;;;31.20;22.40;;;;;;;10.12;95.26;99070.27;105801;1318;22330;-77
2022/10/29 01:50:50;;;;;;;31.80;21.30;;;;;;;10.12;95.22;99068.88;105678;1318;139304;-77
2022/10/29 01:53:18;;;;;;;27.60;19.80;;;;;;;10.13;95.00;99066.39;106081;1313;22717;-77
2022/10/29 01:55:48;;;;;;;32.10;20.90;;;;;;;10.15;95.37;99065.84;106514;1312;22066;-77
2022/10/29 01:58:14;;;;;;;31.00;21.50;;;;;;;10.16;95.38;99067.52;106431;1312;138569;-76
2022/10/29 02:00:47;;;;;;;29.30;21.10;;;;;;;10.18;95.20;99065.25;106530;1312;22086;-77
2022/10/29 02:03:54;;;;;;;30.40;20.50;;;;;;;10.20;95.13;99062.59;106475;1302;138531;-77
2022/10/29 02:06:27;;;;;;;29.40;21.10;;;;;;;10.23;95.37;99057.11;106469;1311;22140;-77
2022/10/29 02:09:00;;;;;;;30.50;21.10;;;;;;;10.25;95.18;99048.95;106463;1312;138655;-77
2022/10/29 02:12:08;;;;;;;29.10;18.80;;;;;;;10.28;95.19;99037.82;106569;1301;22337;-77
2022/10/29 02:15:03;;;;;;;26.80;18.70;;;;;;;10.32;95.06;99035.00;106411;1312;138484;-77
2022/10/29 02:17:31;;;;;;;27.40;18.70;;;;;;;10.34;95.18;99037.74;106563;1312;22351;-77
2022/10/29 02:20:03;;;;;;;25.00;17.80;;;;;;;10.36;94.80;99038.52;106561;1313;22091;-77
2022/10/29 02:22:29;;;;;;;29.00;18.50;;;;;;;10.38;94.91;99041.50;106447;1299;139034;-77
2022/10/29 02:24:55;;;;;;;28.80;20.00;;;;;;;10.39;94.87;99038.17;106627;1310;22116;-77
2022/10/29 02:27:22;;;;;;;28.70;19.50;;;;;;;10.41;94.57;99037.73;106519;1316;138505;-77
2022/10/29 02:29:51;;;;;;;30.10;19.70;;;;;;;10.43;94.46;99038.92;106577;1310;22152;-77
2022/10/29 02:32:17;;;;;;;29.30;20.90;;;;;;;10.44;94.49;99035.67;106454;1313;22105;-77
2022/10/29 02:34:43;;;;;;;30.60;20.80;;;;;;;10.44;94.48;99032.19;106424;1307;138585;-77
2022/10/29 02:37:09;;;;;;;33.00;22.30;;;;;;;10.45;94.50;99034.24;106565;1310;22784;-77
2022/10/29 02:39:38;;;;;;;29.80;21.90;;;;;;;10.46;94.30;99033.06;106500;1310;138521;-77
2022/10/29 02:42:05;;;;;;;30.50;19.20;;;;;;;10.46;94.12;99034.36;106571;1311;22985;-77
2022/10/29 02:44:31;;;;;;;29.50;20.50;;;;;;;10.46;94.07;99041.06;106487;1305;22107;-77
2022/10/29 02:46:58;;;;;;;30.90;20.90;;;;;;;10.47;94.03;99045.33;106526;1310;138178;-76
2022/10/29 02:49:24;;;;;;;27.80;18.50;;;;;;;10.46;94.19;99045.38;106497;1310;22215;-78
2022/10/29 02:51:51;;;;;;;28.50;18.60;;;;;;;10.46;94.11;99041.98;106508;1310;138360;-77
2022/10/29 02:54:28;;;;;;;27.90;17.10;;;;;;;10.46;93.97;99042.15;106612;1299;23023;-77
2022/10/29 02:56:54;;;;;;;23.80;16.50;;;;;;;10.45;94.21;99037.18;106162;1310;138801;-78
2022/10/29 02:59:20;;;;;;;26.60;18.00;;;;;;;10.46;93.95;99033.73;106563;1302;22315;-76
2022/10/29 03:01:49;;;;;;;19.70;15.40;;;;;;;10.47;93.71;99030.80;106567;1310;22403;-77
2022/10/29 03:04:15;;;;;;;26.80;15.70;;;;;;;10.47;93.97;99025.52;106443;1310;138716;-77
2022/10/29 03:06:41;;;;;;;21.40;15.30;;;;;;;10.49;93.86;99022.30;106563;1310;22708;-78
2022/10/29 03:09:07;;;;;;;20.70;14.70;;;;;;;10.50;93.79;99022.11;106407;1311;138571;-77
2022/10/29 03:11:34;;;;;;;22.00;15.50;;;;;;;10.50;93.54;99023.36;106493;1312;22749;-77
2022/10/29 03:14:02;;;;;;;22.30;15.40;;;;;;;10.51;93.22;99025.41;106573;1299;22150;-77
2022/10/29 03:16:29;;;;;;;22.20;14.30;;;;;;;10.51;93.13;99020.35;106504;1310;138732;-77
2022/10/29 03:18:55;;;;;;;19.90;13.80;;;;;;;10.51;93.33;99020.52;106594;1310;22132;-77
2022/10/29 03:21:22;;;;;;;19.30;14.10;;;;;;;10.52;93.20;99021.14;106506;1310;138791;-77
2022/10/29 03:23:54;;;;;;;24.50;15.00;;;;;;;10.52;92.98;99019.95;106574;1296;22376;-76
2022/10/29 03:26:20;;;;;;;23.10;14.10;;;;;;;10.52;92.70;99019.41;106548;1296;22778;-77
2022/10/29 03:28:58;;;;;;;19.10;13.20;;;;;;;10.53;92.71;99018.80;106459;1310;139214;-77
2022/10/29 03:31:25;;;;;;;18.60;13.10;;;;;;;10.53;92.60;99021.65;106539;1310;22267;-77
2022/10/29 03:33:51;;;;;;;19.60;14.10;;;;;;;10.52;92.68;99022.29;106437;1310;138689;-77
2022/10/29 03:36:17;;;;;;;19.40;13.80;;;;;;;10.52;92.62;99020.48;106582;1310;22178;-77
2022/10/29 03:38:44;;;;;;;16.70;11.50;;;;;;;10.52;92.73;99022.52;106426;1310;138748;-77
2022/10/29 03:41:10;;;;;;;20.90;13.10;;;;;;;10.52;92.76;99012.91;106412;1304;22198;-77
2022/10/29 03:43:37;;;;;;;17.00;12.30;;;;;;;10.52;92.38;99012.75;106422;1310;23093;-77
2022/10/29 03:46:04;;;;;;;19.40;12.70;;;;;;;10.51;92.32;99009.33;106414;1303;138494;-77
2022/10/29 03:48:31;;;;;;;14.30;10.40;;;;;;;10.50;92.02;99015.21;106535;1310;22290;-77
2022/10/29 03:51:04;;;;;;;16.70;11.80;;;;;;;10.50;92.12;99007.09;106435;1310;139102;-77
2022/10/29 03:53:32;;;;;;;16.10;10.70;;;;;;;10.50;92.32;99004.95;106556;1310;22937;-77
2022/10/29 03:55:58;;;;;;;16.20;12.20;;;;;;;10.49;92.11;99001.77;106585;1299;22220;-78
2022/10/29 03:58:25;;;;;;;16.40;11.40;;;;;;;10.49;92.29;98997.20;106457;1306;138373;-77
2022/10/29 04:01:12;;;;;;;17.60;12.00;;;;;;;10.48;92.11;98994.98;106475;1310;22196;-77
2022/10/29 04:03:46;;;;;;;16.70;11.40;;;;;;;10.48;91.96;99003.16;106458;1307;138554;-76
2022/10/29 04:06:14;;;;;;;16.60;11.30;;;;;;;10.46;91.85;99008.67;106482;1304;23074;-77
2022/10/29 04:08:41;;;;;;;17.60;11.90;;;;;;;10.46;92.33;99011.23;106377;1312;22342;-77
2022/10/29 04:11:11;;;;;;;15.40;11.40;;;;;;;10.44;92.28;99013.85;106388;1288;138391;-77
2022/10/29 04:13:38;;;;;;;19.10;11.70;;;;;;;10.45;92.09;99021.39;106387;1312;22789;-77
2022/10/29 04:16:04;;;;;;;16.20;11.20;;;;;;;10.45;92.04;99028.30;106461;1304;138512;-77
2022/10/29 04:18:30;;;;;;;17.30;11.30;;;;;;;10.45;92.07;99027.16;106610;1310;22364;-77
2022/10/29 04:21:01;;;;;;;18.70;12.00;;;;;;;10.45;92.10;99024.98;106481;1310;138833;-77
2022/10/29 04:23:28;;;;;;;16.40;11.20;;;;;;;10.45;92.14;99018.95;106520;1310;22837;-77
2022/10/29 04:25:56;;;;;;;20.70;11.10;;;;;;;10.45;92.03;99020.25;106458;1298;22216;-77
2022/10/29 04:28:23;;;;;;;18.40;12.10;;;;;;;10.46;91.83;99025.10;106236;1311;138619;-77
2022/10/29 04:30:50;;;;;;;17.30;11.80;;;;;;;10.45;91.90;99022.59;106523;1304;22401;-78
2022/10/29 04:33:17;;;;;;;16.80;10.80;;;;;;;10.44;91.90;99021.80;106281;1312;138687;-77
2022/10/29 04:35:43;;;;;;;17.50;12.10;;;;;;;10.44;91.98;99020.38;106231;1298;22274;-77
2022/10/29 04:38:10;;;;;;;15.70;11.80;;;;;;;10.43;92.09;99015.95;106570;1302;22230;-77
2022/10/29 04:40:38;;;;;;;16.20;10.60;;;;;;;10.43;91.87;99016.80;106317;1310;139255;-77
2022/10/29 04:43:04;;;;;;;18.40;11.30;;;;;;;10.42;91.96;99024.14;106429;1310;22192;-77
2022/10/29 04:45:30;;;;;;;17.10;11.80;;;;;;;10.42;91.95;99023.05;106321;1310;138761;-77
2022/10/29 04:48:03;;;;;;;18.70;10.60;;;;;;;10.42;91.92;99020.51;106417;1310;22230;-78
2022/10/29 04:50:31;;;;;;;14.90;10.10;;;;;;;10.43;92.09;99024.93;106324;1310;22167;-77
2022/10/29 04:53:01;;;;;;;16.60;11.60;;;;;;;10.42;91.80;99026.32;106375;1310;138498;-77
2022/10/29 04:55:28;;;;;;;16.60;11.70;;;;;;;10.43;91.97;99026.79;106574;1295;22327;-78
2022/10/29 04:57:54;;;;;;;16.30;11.00;;;;;;;10.43;91.87;99024.39;106412;1310;138382;-77
2022/10/29 05:00:21;;;;;;;15.70;10.60;;;;;;;10.44;91.95;99026.54;106541;1310;22260;-76
2022/10/29 05:02:51;;;;;;;17.90;11.70;;;;;;;10.46;92.38;99027.58;106401;1310;138503;-77
2022/10/29 05:05:19;;;;;;;13.90;10.40;;;;;;;10.48;91.88;99018.88;106419;1311;22317;-76
2022/10/29 05:07:45;;;;;;;13.90;10.80;;;;;;;10.48;92.10;99022.05;106519;1301;22180;-77
2022/10/29 05:10:13;;;;;;;15.00;10.70;;;;;;;10.49;91.94;99024.15;106290;1312;138492;-76
2022/10/29 05:12:40;;;;;;;18.40;11.10;;;;;;;10.50;91.85;99025.26;106552;1310;22165;-77
2022/10/29 05:15:07;;;;;;;15.60;11.30;;;;;;;10.51;92.01;99020.89;106429;1310;138691;-76
2022/10/29 05:17:39;;;;;;;16.50;10.40;;;;;;;10.53;91.88;99024.26;106557;1296;22285;-77
2022/10/29 05:20:06;;;;;;;16.60;10.00;;;;;;;10.54;91.64;99023.14;106557;1310;22231;-77
2022/10/29 05:22:32;;;;;;;13.90;9.60;;;;;;;10.55;91.62;99025.10;106490;1310;138950;-77
2022/10/29 05:24:58;;;;;;;17.00;9.90;;;;;;;10.57;91.74;99024.86;106491;1310;22239;-77
2022/10/29 05:27:24;;;;;;;14.20;9.70;;;;;;;10.59;91.81;99024.27;106300;1295;138430;-77
2022/10/29 05:29:50;;;;;;;15.80;9.70;;;;;;;10.61;91.88;99028.19;106634;1303;23084;-76
2022/10/29 05:32:16;;;;;;;15.30;9.10;;;;;;;10.64;91.71;99019.86;106450;1304;22141;-77
2022/10/29 05:34:42;;;;;;;12.90;9.40;;;;;;;10.66;91.67;99017.33;106350;1312;138399;-77
2022/10/29 05:37:08;;;;;;;15.50;9.20;;;;;;;10.69;91.56;99017.11;106727;1291;22270;-77
2022/10/29 05:39:35;;;;;;;17.40;9.60;;;;;;;10.71;91.35;99017.34;106354;1310;138427;-77
2022/10/29 05:42:01;;;;;;;13.30;8.80;;;;;;;10.72;91.34;99012.74;106516;1294;22237;-77
2022/10/29 05:44:27;;;;;;;14.30;8.80;;;;;;;10.75;91.27;99008.78;106522;1310;22291;-77
2022/10/29 05:46:53;;;;;;;12.70;8.90;;;;;;;10.76;91.42;99023.91;106359;1295;138217;-77
2022/10/29 05:49:19;;;;;;;13.30;9.60;;;;;;;10.77;91.13;99027.08;106511;1310;22179;-77
2022/10/29 05:51:45;;;;;;;14.30;9.20;;;;;;;10.78;91.09;99020.76;106408;1304;138197;-77
2022/10/29 05:54:11;;;;;;;19.50;10.70;;;;;;;10.79;91.01;99014.77;106572;1310;22116;-78
2022/10/29 05:56:37;;;;;;;15.00;9.30;;;;;;;10.79;91.12;99024.91;106553;1309;23016;-77
2022/10/29 05:59:03;;;;;;;13.80;10.10;;;;;;;10.79;90.90;99018.20;106637;1297;137992;-77
2022/10/29 06:01:30;;;;;;;16.30;10.50;;;;;;;10.79;90.66;99023.05;106461;1289;22288;-77
2022/10/29 06:04:00;;;;;;;14.20;10.20;;;;;;;10.78;90.96;99029.63;106345;1304;138981;-77
2022/10/29 06:06:29;;;;;;;14.30;10.20;;;;;;;10.77;90.60;99038.33;106646;1303;22092;-77
2022/10/29 06:08:56;;;;;;;16.10;10.20;;;;;;;10.77;90.91;99032.20;106531;1298;138505;-76
2022/10/29 06:11:22;;;;;;;14.30;10.10;;;;;;;10.77;90.75;99030.90;106482;1289;22253;-76
2022/10/29 06:13:48;;;;;;;15.90;10.20;;;;;;;10.77;90.85;99039.83;106614;1310;22128;-77
2022/10/29 06:16:14;;;;;;;16.70;11.10;;;;;;;10.77;90.99;99037.06;106446;1310;138442;-77
2022/10/29 06:18:41;;;;;;;15.70;10.70;;;;;;;10.78;90.97;99036.17;106500;1296;22356;-78
2022/10/29 06:21:07;;;;;;;14.80;9.40;;;;;;;10.79;90.75;99036.74;106467;1310;138562;-77
2022/10/29 06:23:33;;;;;;;18.10;10.20;;;;;;;10.80;90.90;99038.66;106552;1310;22148;-77
2022/10/29 06:26:00;;;;;;;15.90;9.60;;;;;;;10.81;90.74;99039.85;106775;1301;23163;-77
2022/10/29 06:28:27;;;;;;;11.10;8.80;;;;;;;10.84;90.61;99045.63;106424;1298;138176;-77
2022/10/29 06:30:53;;;;;;;14.70;9.60;;;;;;;10.86;90.66;99043.55;106551;1311;22241;-77
2022/10/29 06:33:20;;;;;;;12.70;7.90;;;;;;;10.89;90.42;99044.48;106345;1312;138544;-77
2022/10/29 06:35:46;;;;;;;14.60;9.90;;;;;;;10.91;90.13;99049.73;106345;1310;22534;-78
2022/10/29 06:38:13;;;;;;;14.40;9.10;;;;;;;10.94;90.55;99048.89;106451;1295;22166;-77
2022/10/29 06:40:40;;;;;;;14.90;10.90;;;;;;;10.98;90.42;99044.09;106304;1310;138354;-77
2022/10/29 06:43:10;;;;;;;17.30;10.50;;;;;;;11.03;90.17;99047.65;106601;1310;22279;-77
2022/10/29 06:45:36;;;;;;;14.10;10.70;;;;;;;11.08;90.26;99048.00;106525;1310;138346;-78
2022/10/29 06:48:06;;;;;;;13.30;9.30;;;;;;;11.14;89.89;99039.58;106509;1288;22375;-77
2022/10/29 06:50:33;;;;;;;13.80;10.50;;;;;;;11.19;89.99;99045.23;106481;1310;22935;-78
2022/10/29 06:53:02;;;;;;;13.00;8.90;;;;;;;11.25;89.77;99054.19;106357;1294;138558;-78
2022/10/29 06:55:29;;;;;;;14.40;9.80;;;;;;;11.35;89.45;99058.86;106505;1310;22184;-78
2022/10/29 06:58:16;;;;;;;18.20;9.90;;;;;;;11.43;89.36;99060.02;106379;1298;138394;-77
2022/10/29 07:00:43;;;;;;;13.70;9.30;;;;;;;11.50;88.97;99056.80;106231;1300;22139;-78
2022/10/29 07:03:14;;;;;;;14.20;9.70;;;;;;;11.54;88.67;99061.34;106149;1312;138398;-78
2022/10/29 07:05:41;;;;;;;15.10;9.80;;;;;;;11.58;88.41;99071.09;106503;1310;22229;-76
2022/10/29 07:08:07;;;;;;;13.90;9.80;;;;;;;11.62;88.40;99066.98;106496;1308;22322;-78
2022/10/29 07:10:33;;;;;;;14.00;8.90;;;;;;;11.65;88.31;99073.70;106437;1302;138412;-78
2022/10/29 07:13:01;;;;;;;16.40;10.20;;;;;;;11.69;88.11;99082.20;106394;1313;22175;-77
2022/10/29 07:15:33;;;;;;;15.10;9.70;;;;;;;11.76;88.40;99083.88;106440;1303;138726;-78
2022/10/29 07:18:05;;;;;;;13.80;9.50;;;;;;;11.80;88.16;99082.25;106845;1303;22102;-76
2022/10/29 07:20:43;;;;;;;13.70;9.40;;;;;;;11.87;87.87;99080.75;106514;1298;22810;-77
2022/10/29 07:23:11;;;;;;;14.30;8.20;;;;;;;11.96;87.61;99087.14;106299;1310;138136;-78
2022/10/29 07:25:39;;;;;;;13.20;9.00;;;;;;;12.04;87.78;99088.14;106460;1307;22327;-78
2022/10/29 07:28:11;;;;;;;12.70;8.40;;;;;;;12.13;87.58;99093.77;106352;1303;138392;-78
2022/10/29 07:30:38;;;;;;;12.20;8.40;;;;;;;12.22;87.29;99092.71;106499;1297;22670;-77
2022/10/29 07:33:04;;;;;;;12.30;7.80;;;;;;;12.30;87.09;99093.90;106361;1310;138846;-78
2022/10/29 07:35:32;;;;;;;14.00;8.10;;;;;;;12.37;87.05;99090.66;106602;1310;22102;-78
2022/10/29 07:38:03;;;;;;;11.00;7.20;;;;;;;12.44;86.77;99090.77;106525;1298;22113;-78
2022/10/29 07:40:29;;;;;;;12.40;7.80;;;;;;;12.50;86.72;99084.33;106475;1310;138108;-78
2022/10/29 07:42:55;;;;;;;11.60;7.60;;;;;;;12.56;86.49;99083.46;106594;1310;22830;-77
2022/10/29 07:45:22;;;;;;;14.00;8.10;;;;;;;12.61;86.28;99082.80;106482;1308;139008;-77
2022/10/29 07:47:48;;;;;;;9.50;6.90;;;;;;;12.66;86.02;99085.39;106465;1312;22085;-78
2022/10/29 07:50:14;;;;;;;13.80;7.70;;;;;;;12.69;85.69;99089.13;106529;1306;22183;-78
2022/10/29 07:52:41;;;;;;;10.30;7.50;;;;;;;12.73;85.64;99090.08;106432;1310;138179;-78
2022/10/29 07:55:07;;;;;;;13.60;7.20;;;;;;;12.78;85.54;99090.60;106665;1302;22227;-78
2022/10/29 07:57:34;;;;;;;12.80;7.80;;;;;;;12.83;85.49;99094.14;106734;1287;138157;-77
2022/10/29 08:00:00;;;;;;;13.00;7.30;;;;;;;12.88;85.43;99098.95;106574;1310;22341;-78
2022/10/29 08:02:26;;;;;;;11.40;7.30;;;;;;;12.95;84.76;99103.23;106624;1310;22271;-77
2022/10/29 08:04:52;;;;;;;11.90;6.70;;;;;;;13.01;84.53;99104.30;106514;1304;138443;-77
2022/10/29 08:07:18;;;;;;;11.60;6.90;;;;;;;13.10;84.50;99107.29;106621;1309;22108;-78
2022/10/29 08:09:45;;;;;;;8.40;6.30;;;;;;;13.21;84.07;99101.79;106421;1298;138254;-79
2022/10/29 08:12:11;;;;;;;10.90;6.00;;;;;;;13.32;83.31;99106.10;106554;1310;22333;-77
2022/10/29 08:14:37;;;;;;;11.90;6.50;;;;;;;13.43;82.92;99108.33;106853;1302;22132;-78
2022/10/29 08:17:03;;;;;;;9.60;5.80;;;;;;;13.53;82.33;99109.20;106465;1310;138170;-78
2022/10/29 08:19:30;;;;;;;9.80;5.80;;;;;;;13.63;82.10;99111.67;106587;1310;23026;-78
2022/10/29 08:21:56;;;;;;;10.20;5.70;;;;;;;13.70;81.96;99115.84;106473;1310;138024;-78
2022/10/29 08:24:22;;;;;;;11.80;5.50;;;;;;;13.79;81.54;99114.89;106608;1310;22108;-79
2022/10/29 08:26:49;;;;;;;9.90;5.30;;;;;;;13.86;81.20;99116.64;106526;1310;138791;-78
2022/10/29 08:29:16;;;;;;;11.70;5.90;;;;;;;13.95;80.96;99113.16;106503;1297;22637;-79
2022/10/29 08:31:42;;;;;;;8.60;5.70;;;;;;;14.06;80.55;99122.57;106563;1297;22857;-77
2022/10/29 08:34:08;;;;;;;10.70;5.40;;;;;;;14.18;80.27;99118.09;106744;1297;138224;-77
2022/10/29 08:36:35;;;;;;;11.00;6.30;;;;;;;14.33;79.88;99118.30;106692;1302;22036;-77
2022/10/29 08:39:01;;;;;;;9.40;6.10;;;;;;;14.48;78.84;99116.40;106732;1302;138364;-79
2022/10/29 08:41:57;;;;;;;10.10;5.20;;;;;;;14.62;78.79;99111.79;106606;1296;22091;-78
2022/10/29 08:44:42;;;;;;;9.70;5.50;;;;;;;14.80;78.35;99110.02;106601;1310;22236;-77
2022/10/29 08:47:19;;;;;;;10.80;5.10;;;;;;;14.95;77.88;99111.56;106686;1284;138168;-79
2022/10/29 08:49:58;;;;;;;11.30;4.90;;;;;;;15.07;77.74;99116.02;106510;1305;22195;-79
2022/10/29 08:52:33;;;;;;;10.90;5.10;;;;;;;15.20;76.96;99113.42;106398;1310;138437;-78
2022/10/29 08:55:04;;;;;;;11.20;5.10;;;;;;;15.33;77.58;99108.59;106557;1304;22154;-78
2022/10/29 08:57:36;;;;;;;6.60;4.20;;;;;;;15.47;77.29;99105.27;106722;1284;138424;-78
2022/10/29 09:00:29;;;;;;;7.60;4.40;;;;;;;15.57;76.23;99101.89;106824;1286;22255;-78
2022/10/29 09:02:57;;;;;;;7.90;4.80;;;;;;;15.69;75.91;99098.52;106308;1313;138854;-78
2022/10/29 09:05:31;;;;;;;9.30;4.50;;;;;;;15.79;75.55;99101.17;106603;1309;22100;-78
2022/10/29 09:08:26;;;;;;;12.50;4.80;;;;;;;15.91;75.15;99102.07;106621;1310;22073;-77
2022/10/29 09:11:00;;;;;;;8.10;4.40;;;;;;;16.00;74.32;99099.69;106443;1292;138483;-79
2022/10/29 09:13:42;;;;;;;8.00;4.70;;;;;;;16.07;73.69;99102.61;106535;1310;22818;-79
2022/10/29 09:16:33;;;;;;;10.90;5.40;;;;;;;16.13;74.25;99102.22;106449;1310;138088;-78
2022/10/29 09:19:16;;;;;;;13.10;5.10;;;;;;;16.25;74.31;99103.39;106581;1310;22241;-78
2022/10/29 09:22:21;;;;;;;7.40;4.80;;;;;;;16.34;74.01;99094.25;106465;1295;138326;-78
2022/10/29 09:24:54;;;;;;;9.10;4.60;;;;;;;16.42;73.51;99091.81;106497;1311;22082;-78
2022/10/29 09:27:27;;;;;;;7.60;4.80;;;;;;;16.48;73.33;99094.30;106502;1310;138295;-79
2022/10/29 09:30:15;;;;;;;8.90;4.80;;;;;;;16.57;73.19;99093.80;106642;1310;22070;-78
2022/10/29 09:33:03;;;;;;;10.30;5.10;;;;;;;16.64;72.94;99088.21;106813;1292;22856;-78
2022/10/29 09:35:43;;;;;;;6.90;4.00;;;;;;;16.72;72.45;99088.57;106389;1311;184720;-79
2022/10/29 09:38:21;;;;;;;10.70;3.90;;;;;;;16.79;72.35;99089.26;106613;1303;22906;-79
2022/10/29 09:40:47;;;;;;;6.20;4.00;;;;;;;16.85;71.83;99092.98;106327;1311;138595;-79
2022/10/29 09:43:21;;;;;;;8.20;4.60;;;;;;;16.90;71.41;99093.61;106589;1296;22125;-79
2022/10/29 09:46:12;;;;;;;7.60;4.10;;;;;;;17.00;71.42;99092.91;106536;1310;138018;-78
2022/10/29 09:48:48;;;;;;;6.20;4.20;;;;;;;17.09;70.99;99085.89;106525;1310;22296;-78
2022/10/29 09:51:53;;;;;;;11.60;4.40;;;;;;;17.21;71.23;99087.17;106521;1310;139723;-78
2022/10/29 09:54:22;;;;;;;8.40;4.10;;;;;;;17.32;71.16;99084.95;105807;1318;22318;-79
2022/10/29 09:56:48;;;;;;;8.00;4.00;;;;;;;17.40;70.69;99081.86;105694;1315;22250;-78
2022/10/29 09:59:41;;;;;;;8.60;4.70;;;;;;;17.46;69.83;99084.17;106185;1290;138259;-79
2022/10/29 10:02:31;;;;;;;13.00;4.80;;;;;;;17.51;69.46;99088.19;106126;1302;22175;-78
2022/10/29 10:05:12;;;;;;;6.80;4.40;;;;;;;17.54;69.41;99082.08;105718;1311;139002;-79
2022/10/29 10:07:39;;;;;;;8.30;4.90;;;;;;;17.57;68.87;99080.98;105894;1316;22883;-79
2022/10/29 10:10:27;;;;;;;7.60;4.30;;;;;;;17.61;69.19;99082.35;105837;1313;138263;-76
2022/10/29 10:13:02;;;;;;;10.40;4.50;;;;;;;17.64;69.04;99077.95;106300;1301;22184;-75
2022/10/29 10:15:37;;;;;;;5.70;3.80;;;;;;;17.67;69.19;99071.63;105891;1316;138565;-77
2022/10/29 10:18:32;;;;;;;8.10;4.00;;;;;;;17.70;69.53;99070.95;105926;1317;22158;-78
2022/10/29 10:21:06;;;;;;;8.40;4.00;;;;;;;17.74;68.99;99060.70;106320;1309;138784;-79
2022/10/29 10:23:52;;;;;;;5.80;4.00;;;;;;;17.79;68.88;99057.38;105839;1304;22230;-79
2022/10/29 10:26:29;;;;;;;8.00;3.90;;;;;;;17.87;68.59;99055.95;105868;1318;22153;-78
2022/10/29 10:29:10;;;;;;;8.80;4.40;;;;;;;17.98;68.64;99060.07;105794;1310;138180;-78
2022/10/29 10:32:03;;;;;;;6.60;4.60;;;;;;;18.11;68.43;99054.81;106476;1295;22936;-78
2022/10/29 10:34:32;;;;;;;7.70;4.20;;;;;;;18.26;68.00;99058.13;106452;1296;138272;-79
2022/10/29 10:37:02;;;;;;;;;;;;;;;18.38;67.65;99047.39;106625;1310;22385;-78
2022/10/29 10:39:41;;;;;;;9.30;4.50;;;;;;;18.48;67.58;99048.39;106483;1304;124898;-79
2022/10/29 10:42:22;;;;;;;8.00;4.90;;;;;;;18.61;67.18;99043.37;106584;1310;22149;-78
2022/10/29 10:44:51;;;;;;;8.40;5.40;;;;;;;18.72;66.52;99038.73;106540;1298;22092;-78
2022/10/29 10:47:21;;;;;;;8.90;4.80;;;;;;;18.72;66.13;99034.53;106485;1312;22089;-78
2022/10/29 10:49:48;;;;;;;8.50;4.30;;;;;;;18.68;66.01;99037.25;106434;1310;22152;-78
2022/10/29 10:52:21;;;;;;;8.40;5.30;;;;;;;18.67;66.20;99032.91;106720;1302;138247;-77
2022/10/29 10:54:59;;;;;;;9.50;4.60;;;;;;;18.65;66.48;99028.50;106668;1287;23009;-78
2022/10/29 10:57:31;;;;;;;7.40;5.10;;;;;;;18.60;66.18;99026.38;106501;1304;139117;-78
2022/10/29 11:00:01;;;;;;;8.40;5.40;;;;;;;18.52;66.18;99024.44;106603;1304;22075;-79
2022/10/29 11:02:52;;;;;;;10.20;7.00;;;;;;;18.42;66.43;99027.18;106602;1310;22185;-78
2022/10/29 11:05:23;;;;;;;8.60;4.90;;;;;;;18.31;66.27;99031.08;106554;1296;22227;-78
2022/10/29 11:07:55;;;;;;;11.00;5.90;;;;;;;18.21;66.50;99031.57;106590;1310;22177;-79
2022/10/29 11:10:30;;;;;;;9.50;5.00;;;;;;;18.15;67.05;99030.42;106703;1274;138382;-79
2022/10/29 11:13:02;;;;;;;8.90;4.90;;;;;;;18.17;67.15;99028.45;106509;1303;22118;-79
2022/10/29 11:16:08;;;;;;;8.50;5.10;;;;;;;18.18;67.34;99025.23;106374;1287;138341;-79
2022/10/29 11:18:40;;;;;;;7.30;5.00;;;;;;;18.23;67.38;99019.87;106523;1311;22156;-79
2022/10/29 11:21:26;;;;;;;12.10;5.20;;;;;;;18.29;67.34;99010.41;106725;1300;138163;-79
2022/10/29 11:24:21;;;;;;;8.90;5.40;;;;;;;18.36;67.18;99003.00;106413;1307;22208;-78
2022/10/29 11:26:54;;;;;;;7.80;5.20;;;;;;;18.46;67.13;99003.45;106153;1305;22141;-79
2022/10/29 11:29:23;;;;;;;6.80;5.10;;;;;;;18.56;67.25;99006.59;106149;1291;23048;-79
2022/10/29 11:31:59;;;;;;;14.70;6.10;;;;;;;18.69;66.85;99001.39;105853;1318;22282;-79
2022/10/29 11:34:59;;;;;;;10.40;5.60;;;;;;;18.81;66.58;99001.38;105746;1310;138439;-79